Terminal Aerodrome Forecast
Issued by NWS Atlanta, GA

Home | Current Version | Previous Version | Text Only | Print | Product List | Glossary On
Versions: 1 2 3 4 5 6 7 8 9 10 11 12 13 14 15 16 17 18 19 20 21 22 23 24 25 26 27 28 29 30 31 32 33 34 35 36
000
FTUS42 KFFC 191100
TAFATL
TAF
KATL 191120Z 1912/2018 01010G18KT 6SM -RA BKN012
      TEMPO 1912/1916 3SM BR BKN005
     FM191600 04014G24KT 6SM -RA BR BKN012
     FM192200 05012G20KT P6SM BKN020
     FM200200 06012KT P6SM BKN020
     FM201500 07012G20KT P6SM BKN040=

USA.gov is the U.S. government's official web portal to all federal, state and local government web resources and services.